Time;durP1;ratioP1;P1;durP2;ratioP2;P2;SDS_P1;SDS_P2;PMS_P1;PMS_P2;Temp;Humidity;BMP_temperature;BMP_pressure;BME280_temperature;BME280_humidity;BME280_pressure;Samples;Min_cycle;Max_cycle;Signal;HPM_P1;HPM_P2
2023/12/26 00:02:17;;;;;;;1.90;1.90;;;;;;;;;;6312624;28;20513;-68
2023/12/26 00:05:22;;;;;;;2.00;1.90;;;;;;;;;;6311012;28;20558;-68
2023/12/26 00:08:26;;;;;;;1.93;1.93;;;;;;;;;;6312084;28;20462;-68
2023/12/26 00:11:30;;;;;;;2.20;2.10;;;;;;;;;;6313002;28;20309;-68
2023/12/26 00:14:35;;;;;;;1.93;1.93;;;;;;;;;;6310793;28;20294;-68
2023/12/26 00:17:39;;;;;;;1.83;1.83;;;;;;;;;;6312758;28;20284;-67
2023/12/26 00:20:44;;;;;;;1.70;1.70;;;;;;;;;;6311403;28;20375;-67
2023/12/26 00:23:48;;;;;;;2.30;2.20;;;;;;;;;;6311422;28;20463;-68
2023/12/26 00:26:52;;;;;;;1.93;1.83;;;;;;;;;;6311015;28;20297;-68
2023/12/26 00:29:58;;;;;;;1.80;1.80;;;;;;;;;;6311921;28;20296;-68
2023/12/26 00:33:02;;;;;;;2.10;2.00;;;;;;;;;;6310155;28;20297;-68
2023/12/26 00:36:07;;;;;;;2.00;1.97;;;;;;;;;;6312080;28;20313;-67
2023/12/26 00:39:11;;;;;;;2.03;2.03;;;;;;;;;;6311707;28;20290;-67
2023/12/26 00:42:15;;;;;;;1.70;1.70;;;;;;;;;;6310505;28;20571;-68
2023/12/26 00:45:22;;;;;;;1.67;1.67;;;;;;;;;;6311009;28;20293;-68
2023/12/26 00:48:26;;;;;;;1.80;1.80;;;;;;;;;;6309727;28;20289;-67
2023/12/26 00:51:31;;;;;;;2.07;2.07;;;;;;;;;;6310632;28;20298;-67
2023/12/26 00:54:37;;;;;;;2.20;2.00;;;;;;;;;;6310695;28;20300;-67
2023/12/26 00:57:40;;;;;;;2.17;2.07;;;;;;;;;;6310176;28;20316;-68
2023/12/26 01:00:46;;;;;;;1.90;1.90;;;;;;;;;;6311055;28;20313;-67
2023/12/26 01:03:50;;;;;;;1.87;1.87;;;;;;;;;;6310767;28;20294;-68
2023/12/26 01:06:55;;;;;;;2.00;2.00;;;;;;;;;;6309676;28;20289;-68
2023/12/26 01:10:00;;;;;;;2.30;2.10;;;;;;;;;;6310338;28;20293;-68
2023/12/26 01:13:05;;;;;;;2.13;2.13;;;;;;;;;;6308595;28;20532;-68
2023/12/26 01:16:11;;;;;;;1.93;1.93;;;;;;;;;;6309489;28;20563;-67
2023/12/26 01:19:16;;;;;;;2.50;2.30;;;;;;;;;;6308729;28;20296;-67
2023/12/26 01:22:20;;;;;;;2.23;2.00;;;;;;;;;;6310385;28;20295;-68
2023/12/26 01:25:24;;;;;;;2.03;2.00;;;;;;;;;;6308525;28;20303;-67
2023/12/26 01:28:29;;;;;;;2.00;2.00;;;;;;;;;;6308462;28;20294;-66
2023/12/26 01:31:36;;;;;;;2.50;2.40;;;;;;;;;;6310322;28;20492;-67
2023/12/26 01:34:40;;;;;;;1.87;1.87;;;;;;;;;;6308574;28;20290;-66
2023/12/26 01:37:45;;;;;;;2.30;2.30;;;;;;;;;;6309886;28;20295;-67
2023/12/26 01:40:49;;;;;;;2.10;2.10;;;;;;;;;;6310536;28;20310;-66
2023/12/26 01:43:53;;;;;;;2.03;2.03;;;;;;;;;;6309894;28;20296;-68
2023/12/26 01:46:58;;;;;;;2.03;2.03;;;;;;;;;;6309479;28;20290;-67
2023/12/26 01:50:02;;;;;;;2.60;2.40;;;;;;;;;;6307290;28;20470;-66
2023/12/26 01:53:06;;;;;;;2.10;2.10;;;;;;;;;;6308326;28;20595;-66
2023/12/26 01:56:14;;;;;;;1.90;1.90;;;;;;;;;;6310228;28;20278;-66
2023/12/26 01:59:19;;;;;;;2.27;2.17;;;;;;;;;;6308179;28;20401;-66
2023/12/26 02:02:25;;;;;;;1.93;1.83;;;;;;;;;;6308858;28;20580;-67
2023/12/26 02:05:29;;;;;;;2.23;2.23;;;;;;;;;;6308213;28;20290;-66
2023/12/26 02:08:33;;;;;;;2.10;2.10;;;;;;;;;;6309188;28;20288;-66
2023/12/26 02:11:37;;;;;;;2.13;2.13;;;;;;;;;;6308625;28;20286;-66
2023/12/26 02:14:41;;;;;;;2.20;2.20;;;;;;;;;;6309473;28;20299;-66
2023/12/26 02:17:47;;;;;;;1.87;1.87;;;;;;;;;;6309848;28;20352;-67
2023/12/26 02:20:51;;;;;;;1.60;1.60;;;;;;;;;;6309718;28;20294;-67
2023/12/26 02:23:57;;;;;;;1.70;1.70;;;;;;;;;;6308969;28;20293;-67
2023/12/26 02:27:01;;;;;;;1.63;1.63;;;;;;;;;;6309074;28;20301;-66
2023/12/26 02:30:07;;;;;;;1.70;1.70;;;;;;;;;;6307756;28;20290;-66
2023/12/26 02:33:12;;;;;;;1.70;1.70;;;;;;;;;;6309060;28;20287;-66
2023/12/26 02:36:16;;;;;;;1.60;1.60;;;;;;;;;;6309869;28;20306;-66
2023/12/26 02:39:21;;;;;;;1.60;1.60;;;;;;;;;;6308716;28;20302;-66
2023/12/26 02:42:29;;;;;;;1.70;1.70;;;;;;;;;;6309237;28;20294;-66
2023/12/26 02:45:33;;;;;;;1.60;1.50;;;;;;;;;;6307419;28;20298;-66
2023/12/26 02:48:37;;;;;;;1.70;1.60;;;;;;;;;;6308710;28;20282;-66
2023/12/26 02:51:41;;;;;;;1.77;1.77;;;;;;;;;;6308021;28;20293;-66
2023/12/26 02:54:47;;;;;;;1.43;1.43;;;;;;;;;;6308812;28;20294;-66
2023/12/26 02:57:51;;;;;;;1.70;1.70;;;;;;;;;;6284171;28;20295;-66
2023/12/26 03:00:55;;;;;;;1.40;1.40;;;;;;;;;;6284606;28;20299;-66
2023/12/26 03:03:59;;;;;;;1.70;1.60;;;;;;;;;;6283733;28;20291;-66
2023/12/26 03:07:04;;;;;;;1.47;1.47;;;;;;;;;;6283368;28;20295;-66
2023/12/26 03:10:10;;;;;;;1.87;1.87;;;;;;;;;;6289589;28;20286;-66
2023/12/26 03:13:14;;;;;;;2.03;1.93;;;;;;;;;;6307604;28;20285;-66
2023/12/26 03:16:18;;;;;;;2.20;2.10;;;;;;;;;;6307897;28;20308;-66
2023/12/26 03:19:22;;;;;;;1.50;1.50;;;;;;;;;;6308837;28;20475;-66
2023/12/26 03:22:27;;;;;;;1.50;1.50;;;;;;;;;;6308857;28;20290;-66
2023/12/26 03:25:32;;;;;;;1.60;1.60;;;;;;;;;;6308343;28;20298;-66
2023/12/26 03:28:36;;;;;;;1.87;1.87;;;;;;;;;;6308093;28;20297;-66
2023/12/26 03:31:43;;;;;;;1.73;1.73;;;;;;;;;;6307583;28;20293;-66
2023/12/26 03:34:48;;;;;;;2.03;2.03;;;;;;;;;;6308807;28;20298;-66
2023/12/26 03:37:53;;;;;;;1.47;1.47;;;;;;;;;;6311343;28;20361;-66
2023/12/26 03:40:59;;;;;;;1.60;1.60;;;;;;;;;;6313254;28;20304;-67
2023/12/26 03:44:03;;;;;;;1.90;1.80;;;;;;;;;;6309894;28;20297;-66
2023/12/26 03:47:07;;;;;;;2.00;1.90;;;;;;;;;;6311494;28;20266;-66
2023/12/26 03:50:11;;;;;;;1.70;1.70;;;;;;;;;;6311195;28;20296;-66
2023/12/26 03:53:16;;;;;;;1.60;1.60;;;;;;;;;;6311400;28;20282;-66
2023/12/26 03:56:21;;;;;;;1.90;1.90;;;;;;;;;;6311839;28;20310;-66
2023/12/26 03:59:25;;;;;;;2.03;1.70;;;;;;;;;;6312145;28;20294;-67
2023/12/26 04:02:29;;;;;;;2.50;1.87;;;;;;;;;;6310051;28;20302;-66
2023/12/26 04:05:33;;;;;;;1.90;1.80;;;;;;;;;;6309082;28;20290;-66
2023/12/26 04:08:37;;;;;;;2.00;1.90;;;;;;;;;;6311051;28;20290;-66
2023/12/26 04:11:43;;;;;;;1.80;1.80;;;;;;;;;;6311051;28;20562;-66
2023/12/26 04:14:47;;;;;;;1.90;1.90;;;;;;;;;;6310545;28;20602;-66
2023/12/26 04:17:51;;;;;;;2.30;2.20;;;;;;;;;;6311041;28;20302;-66
2023/12/26 04:20:56;;;;;;;2.07;2.07;;;;;;;;;;6310865;28;20566;-66
2023/12/26 04:24:00;;;;;;;2.07;1.97;;;;;;;;;;6311914;28;20302;-67
2023/12/26 04:27:06;;;;;;;2.40;2.30;;;;;;;;;;6310629;28;20297;-66
2023/12/26 04:30:11;;;;;;;1.80;1.80;;;;;;;;;;6309704;28;20293;-66
2023/12/26 04:33:15;;;;;;;2.00;1.90;;;;;;;;;;6311578;28;20285;-66
2023/12/26 04:36:20;;;;;;;1.70;1.70;;;;;;;;;;6310553;28;20301;-66
2023/12/26 04:39:24;;;;;;;1.90;1.90;;;;;;;;;;6310241;28;20606;-69
2023/12/26 04:42:30;;;;;;;1.90;1.90;;;;;;;;;;6311791;28;20293;-67
2023/12/26 04:45:34;;;;;;;1.80;1.80;;;;;;;;;;6309418;28;20303;-66
2023/12/26 04:48:38;;;;;;;1.73;1.73;;;;;;;;;;6310896;28;20292;-66
2023/12/26 04:51:43;;;;;;;2.07;1.97;;;;;;;;;;6310818;28;20297;-66
2023/12/26 04:54:47;;;;;;;1.83;1.83;;;;;;;;;;6309207;28;20299;-67
2023/12/26 04:57:53;;;;;;;2.03;1.93;;;;;;;;;;6310900;28;20301;-66
2023/12/26 05:00:57;;;;;;;1.90;1.80;;;;;;;;;;6310371;28;20297;-66
2023/12/26 05:04:03;;;;;;;1.70;1.70;;;;;;;;;;6309607;28;20297;-65
2023/12/26 05:07:08;;;;;;;2.00;2.00;;;;;;;;;;6309282;28;20477;-66
2023/12/26 05:10:12;;;;;;;1.80;1.80;;;;;;;;;;6310513;28;20599;-65
2023/12/26 05:13:18;;;;;;;1.80;1.80;;;;;;;;;;6308959;28;20296;-65
2023/12/26 05:16:22;;;;;;;1.83;1.83;;;;;;;;;;6309602;28;20301;-66
2023/12/26 05:19:27;;;;;;;1.70;1.70;;;;;;;;;;6308892;28;20300;-67
2023/12/26 05:22:31;;;;;;;1.80;1.80;;;;;;;;;;6310596;28;20306;-65
2023/12/26 05:25:35;;;;;;;1.90;1.90;;;;;;;;;;6310316;28;20479;-65
2023/12/26 05:28:40;;;;;;;1.80;1.80;;;;;;;;;;6307760;28;20300;-65
2023/12/26 05:31:45;;;;;;;1.70;1.70;;;;;;;;;;6309381;28;20280;-65
2023/12/26 05:34:49;;;;;;;1.97;1.97;;;;;;;;;;6308656;28;20300;-65
2023/12/26 05:37:53;;;;;;;2.00;1.90;;;;;;;;;;6308779;28;20300;-66
2023/12/26 05:40:57;;;;;;;1.50;1.50;;;;;;;;;;6309288;28;20299;-66
2023/12/26 05:44:02;;;;;;;1.90;1.80;;;;;;;;;;6307678;28;20577;-67
2023/12/26 05:47:06;;;;;;;1.70;1.70;;;;;;;;;;6308650;28;20435;-66
2023/12/26 05:50:11;;;;;;;1.90;1.90;;;;;;;;;;6307990;28;20293;-66
2023/12/26 05:53:15;;;;;;;1.90;1.80;;;;;;;;;;6308439;28;20315;-66
2023/12/26 05:56:19;;;;;;;2.13;2.03;;;;;;;;;;6308910;28;20314;-65
2023/12/26 05:59:25;;;;;;;1.60;1.60;;;;;;;;;;6308844;28;20295;-65
2023/12/26 06:02:29;;;;;;;1.50;1.50;;;;;;;;;;6307960;28;20365;-67
2023/12/26 06:05:33;;;;;;;2.00;1.80;;;;;;;;;;6308482;28;20291;-66
2023/12/26 06:08:37;;;;;;;1.83;1.83;;;;;;;;;;6308057;28;20352;-67
2023/12/26 06:11:41;;;;;;;1.60;1.60;;;;;;;;;;6309995;28;20288;-65
2023/12/26 06:14:46;;;;;;;2.03;1.97;;;;;;;;;;6307930;28;20283;-65
2023/12/26 06:17:52;;;;;;;1.77;1.77;;;;;;;;;;6307880;28;20296;-67
2023/12/26 06:20:56;;;;;;;1.60;1.60;;;;;;;;;;6309299;28;20306;-67
2023/12/26 06:24:01;;;;;;;1.60;1.60;;;;;;;;;;6307936;28;20292;-67
2023/12/26 06:27:05;;;;;;;1.60;1.60;;;;;;;;;;6291113;28;20304;-66
2023/12/26 06:30:12;;;;;;;2.30;1.90;;;;;;;;;;6284476;28;20296;-66
2023/12/26 06:33:17;;;;;;;2.00;1.93;;;;;;;;;;6284100;28;20288;-66
2023/12/26 06:36:21;;;;;;;1.80;1.80;;;;;;;;;;6283408;28;20292;-66
2023/12/26 06:39:27;;;;;;;1.80;1.80;;;;;;;;;;6282737;28;20303;-67
2023/12/26 06:42:31;;;;;;;2.40;2.30;;;;;;;;;;6283305;28;20299;-67
2023/12/26 06:45:37;;;;;;;1.80;1.70;;;;;;;;;;6283459;28;20337;-67
2023/12/26 06:48:40;;;;;;;1.50;1.50;;;;;;;;;;6282677;28;20340;-67
2023/12/26 06:51:46;;;;;;;1.70;1.63;;;;;;;;;;6283162;28;20288;-67
2023/12/26 06:54:51;;;;;;;1.50;1.50;;;;;;;;;;6283054;28;20295;-67
2023/12/26 06:57:55;;;;;;;1.77;1.77;;;;;;;;;;6323858;28;20581;-66
2023/12/26 07:01:00;;;;;;;1.90;1.90;;;;;;;;;;6324660;28;20292;-67
2023/12/26 07:04:05;;;;;;;2.00;1.90;;;;;;;;;;6307209;28;20312;-67
2023/12/26 07:07:09;;;;;;;1.70;1.70;;;;;;;;;;6324818;28;20305;-68
2023/12/26 07:10:13;;;;;;;1.60;1.60;;;;;;;;;;6309473;28;20300;-67
2023/12/26 07:13:17;;;;;;;1.87;1.87;;;;;;;;;;6313300;28;20287;-67
2023/12/26 07:16:23;;;;;;;1.90;1.77;;;;;;;;;;6289993;28;20560;-67
2023/12/26 07:19:27;;;;;;;2.00;2.00;;;;;;;;;;6287970;28;20308;-66
2023/12/26 07:22:31;;;;;;;1.97;1.97;;;;;;;;;;6288983;28;20288;-67
2023/12/26 07:25:35;;;;;;;3.70;1.90;;;;;;;;;;6292454;28;20284;-67
2023/12/26 07:28:39;;;;;;;2.10;2.00;;;;;;;;;;6312923;28;20298;-66
2023/12/26 07:31:44;;;;;;;2.27;2.07;;;;;;;;;;6313667;28;20296;-67
2023/12/26 07:34:49;;;;;;;2.10;2.00;;;;;;;;;;6313497;28;20604;-67
2023/12/26 07:37:53;;;;;;;1.83;1.80;;;;;;;;;;6312930;28;20488;-67
2023/12/26 07:40:57;;;;;;;1.97;1.97;;;;;;;;;;6313556;28;20459;-66
2023/12/26 07:44:01;;;;;;;2.10;2.00;;;;;;;;;;6344076;28;20592;-67
2023/12/26 07:47:07;;;;;;;2.13;2.03;;;;;;;;;;6312288;28;20263;-67
2023/12/26 07:50:10;;;;;;;1.97;1.87;;;;;;;;;;6312484;28;20290;-67
2023/12/26 07:53:15;;;;;;;2.23;2.13;;;;;;;;;;6312536;28;20307;-67
2023/12/26 07:56:20;;;;;;;1.90;1.80;;;;;;;;;;6313195;28;20736;-67
2023/12/26 07:59:24;;;;;;;1.80;1.80;;;;;;;;;;6313185;28;20326;-67
2023/12/26 08:02:29;;;;;;;2.10;2.10;;;;;;;;;;6312874;28;20288;-67
2023/12/26 08:05:33;;;;;;;2.33;2.23;;;;;;;;;;6312126;28;20287;-67
2023/12/26 08:08:37;;;;;;;1.97;1.80;;;;;;;;;;6309013;28;20296;-67
2023/12/26 08:11:41;;;;;;;2.00;1.90;;;;;;;;;;6311737;28;20462;-67
2023/12/26 08:14:45;;;;;;;2.13;2.03;;;;;;;;;;6312516;28;20296;-67
2023/12/26 08:17:51;;;;;;;2.50;2.30;;;;;;;;;;6311881;28;20296;-66
2023/12/26 08:20:55;;;;;;;2.17;2.10;;;;;;;;;;6312001;28;20295;-66
2023/12/26 08:24:00;;;;;;;2.40;2.30;;;;;;;;;;6311629;28;20287;-67
2023/12/26 08:27:04;;;;;;;3.20;2.07;;;;;;;;;;6312103;28;20484;-66
2023/12/26 08:30:09;;;;;;;2.40;2.30;;;;;;;;;;6311562;28;20296;-66
2023/12/26 08:33:15;;;;;;;2.23;2.13;;;;;;;;;;6311713;28;20311;-67
2023/12/26 08:36:19;;;;;;;3.27;2.23;;;;;;;;;;6311827;28;20477;-66
2023/12/26 08:39:23;;;;;;;2.10;2.00;;;;;;;;;;6311335;28;20298;-67
2023/12/26 08:42:28;;;;;;;4.00;2.37;;;;;;;;;;6310835;28;20556;-67
2023/12/26 08:45:32;;;;;;;2.40;2.30;;;;;;;;;;6311387;28;20292;-67
2023/12/26 08:48:37;;;;;;;3.80;2.47;;;;;;;;;;6311377;28;20295;-67
2023/12/26 08:51:41;;;;;;;2.27;2.20;;;;;;;;;;6312250;28;20295;-68
2023/12/26 08:54:45;;;;;;;2.50;2.40;;;;;;;;;;6311215;28;20303;-68
2023/12/26 08:57:49;;;;;;;3.67;2.20;;;;;;;;;;6285995;28;20376;-68
2023/12/26 09:00:53;;;;;;;2.70;2.60;;;;;;;;;;6286345;28;20289;-67
2023/12/26 09:03:59;;;;;;;2.43;2.27;;;;;;;;;;6285865;28;20291;-67
2023/12/26 09:07:04;;;;;;;2.87;2.63;;;;;;;;;;6286868;28;20290;-67
2023/12/26 09:10:10;;;;;;;3.13;2.33;;;;;;;;;;6292246;28;20305;-67
2023/12/26 09:13:15;;;;;;;2.97;2.77;;;;;;;;;;6305600;28;20289;-67
2023/12/26 09:16:19;;;;;;;3.87;2.77;;;;;;;;;;6305639;28;20297;-68
2023/12/26 09:19:25;;;;;;;3.77;3.47;;;;;;;;;;6295965;28;20294;-66
2023/12/26 09:22:29;;;;;;;3.40;3.10;;;;;;;;;;6307105;28;20308;-66
2023/12/26 09:25:33;;;;;;;7.23;3.63;;;;;;;;;;6310422;28;20293;-68
2023/12/26 09:28:39;;;;;;;4.90;3.20;;;;;;;;;;6310736;28;20296;-69
2023/12/26 09:31:44;;;;;;;6.57;3.50;;;;;;;;;;6311188;28;20293;-68
2023/12/26 09:34:49;;;;;;;5.80;3.90;;;;;;;;;;6309615;28;20297;-69
2023/12/26 09:37:53;;;;;;;5.23;3.43;;;;;;;;;;6309882;28;20298;-68
2023/12/26 09:40:57;;;;;;;4.60;3.30;;;;;;;;;;6310455;28;20597;-69
2023/12/26 09:44:01;;;;;;;4.10;3.70;;;;;;;;;;6308852;28;20316;-70
2023/12/26 09:47:07;;;;;;;3.97;3.17;;;;;;;;;;6309919;28;20245;-69
2023/12/26 09:50:12;;;;;;;4.07;3.50;;;;;;;;;;6309828;28;20290;-68
2023/12/26 09:53:21;;;;;;;7.10;3.63;;;;;;;;;;6309822;28;20317;-66
2023/12/26 09:56:26;;;;;;;5.97;3.30;;;;;;;;;;6309763;28;20466;-66
2023/12/26 09:59:34;;;;;;;6.07;3.20;;;;;;;;;;6309096;28;20290;-67
2023/12/26 10:02:38;;;;;;;2.70;2.60;;;;;;;;;;6308764;28;20286;-68
2023/12/26 10:05:43;;;;;;;3.43;3.23;;;;;;;;;;6290166;28;20286;-67
2023/12/26 10:08:47;;;;;;;2.60;2.50;;;;;;;;;;6309486;28;20293;-67
2023/12/26 10:11:53;;;;;;;4.20;2.93;;;;;;;;;;6309579;28;20319;-67
2023/12/26 10:14:58;;;;;;;3.37;3.00;;;;;;;;;;6309205;28;20294;-68
2023/12/26 10:18:03;;;;;;;3.43;3.00;;;;;;;;;;6308903;28;20290;-69
2023/12/26 10:21:09;;;;;;;2.80;2.60;;;;;;;;;;6308525;28;20447;-69
2023/12/26 10:24:13;;;;;;;3.00;2.80;;;;;;;;;;6308973;28;20295;-68
2023/12/26 10:27:17;;;;;;;2.83;2.60;;;;;;;;;;6309056;28;20306;-67
2023/12/26 10:30:21;;;;;;;2.80;2.57;;;;;;;;;;6308615;28;20294;-68
2023/12/26 10:33:27;;;;;;;2.67;2.57;;;;;;;;;;6308493;28;20294;-67
2023/12/26 10:36:32;;;;;;;3.53;2.53;;;;;;;;;;6309002;28;20294;-67
2023/12/26 10:39:37;;;;;;;2.70;2.30;;;;;;;;;;6308977;28;20454;-68
2023/12/26 10:42:41;;;;;;;3.60;2.80;;;;;;;;;;6309540;28;20294;-68
2023/12/26 10:45:45;;;;;;;2.60;2.40;;;;;;;;;;6313155;28;20286;-68
2023/12/26 10:48:50;;;;;;;3.80;2.37;;;;;;;;;;6313801;28;20297;-68
2023/12/26 10:51:57;;;;;;;2.37;2.27;;;;;;;;;;6314163;28;20305;-70
2023/12/26 10:55:03;;;;;;;2.80;2.33;;;;;;;;;;6313762;28;20293;-69
2023/12/26 10:58:19;;;;;;;4.20;2.30;;;;;;;;;;6313557;28;20286;-67
2023/12/26 13:51:58;;;;;;;1.80;1.80;;;;;;;;;;6283062;28;20299;-65
2023/12/26 13:55:39;;;;;;;1.60;1.60;;;;;;;;;;6305123;28;20290;-66
2023/12/26 13:59:21;;;;;;;1.63;1.63;;;;;;;;;;6309561;28;20286;-66
2023/12/26 14:02:27;;;;;;;1.73;1.73;;;;;;;;;;6284439;28;20283;-67
2023/12/26 14:05:31;;;;;;;2.00;1.90;;;;;;;;;;6281985;28;20302;-72
2023/12/26 14:09:13;;;;;;;1.47;1.43;;;;;;;;;;6281589;28;20290;-69
2023/12/26 14:12:54;;;;;;;1.73;1.73;;;;;;;;;;6309298;28;20294;-68
2023/12/26 14:16:35;;;;;;;1.63;1.63;;;;;;;;;;6307897;28;20290;-71
2023/12/26 14:20:16;;;;;;;2.00;1.90;;;;;;;;;;6309340;28;20302;-66
2023/12/26 14:23:22;;;;;;;1.50;1.50;;;;;;;;;;6308892;28;20322;-68
2023/12/26 14:26:27;;;;;;;1.80;1.80;;;;;;;;;;6310060;28;20286;-67
2023/12/26 14:29:31;;;;;;;1.80;1.70;;;;;;;;;;6309344;28;20305;-67
2023/12/26 14:33:31;;;;;;;1.90;1.90;;;;;;;;;;6309182;28;20231;-67
2023/12/26 14:37:13;;;;;;;1.50;1.47;;;;;;;;;;6309221;28;20587;-67
2023/12/26 14:40:56;;;;;;;1.67;1.67;;;;;;;;;;6309180;28;20344;-68
2023/12/26 14:44:37;;;;;;;1.80;1.80;;;;;;;;;;6307911;28;20294;-68
2023/12/26 14:47:42;;;;;;;1.90;1.90;;;;;;;;;;6309074;28;20291;-68
2023/12/26 14:50:47;;;;;;;2.00;1.90;;;;;;;;;;6308807;28;20298;-67
2023/12/26 14:54:28;;;;;;;1.90;1.90;;;;;;;;;;6308810;28;20297;-67
2023/12/26 14:58:09;;;;;;;2.10;2.00;;;;;;;;;;6286605;28;20295;-67
2023/12/26 15:01:13;;;;;;;2.00;2.00;;;;;;;;;;6283791;28;20298;-67
2023/12/26 15:04:21;;;;;;;1.80;1.80;;;;;;;;;;6283601;28;20601;-68
2023/12/26 15:07:26;;;;;;;2.13;2.03;;;;;;;;;;6284934;28;20302;-68
2023/12/26 15:10:31;;;;;;;2.20;2.10;;;;;;;;;;6293504;28;20290;-68
2023/12/26 15:13:35;;;;;;;2.33;2.23;;;;;;;;;;6309073;28;20319;-68
2023/12/26 15:16:48;;;;;;;1.90;1.90;;;;;;;;;;6308881;28;20354;-68
2023/12/26 15:19:54;;;;;;;1.70;1.70;;;;;;;;;;6308537;28;20299;-68
2023/12/26 15:22:58;;;;;;;1.90;1.90;;;;;;;;;;6308663;28;20361;-68
2023/12/26 15:26:02;;;;;;;2.20;2.20;;;;;;;;;;6307066;28;20295;-68
2023/12/26 15:29:06;;;;;;;2.00;1.90;;;;;;;;;;6308499;28;20404;-68
2023/12/26 15:32:11;;;;;;;2.00;1.83;;;;;;;;;;6311469;28;20241;-68
2023/12/26 15:35:16;;;;;;;2.03;2.03;;;;;;;;;;6312949;28;20301;-68
2023/12/26 15:38:20;;;;;;;1.90;1.90;;;;;;;;;;6312826;28;20298;-67
2023/12/26 15:41:25;;;;;;;1.93;1.90;;;;;;;;;;6313299;28;20294;-67
2023/12/26 15:44:29;;;;;;;1.97;1.80;;;;;;;;;;6312718;28;20289;-66
2023/12/26 15:47:34;;;;;;;2.23;2.13;;;;;;;;;;6313249;28;20470;-66
2023/12/26 15:50:40;;;;;;;3.13;1.97;;;;;;;;;;6312055;28;20297;-66
2023/12/26 15:53:44;;;;;;;2.10;2.10;;;;;;;;;;6312564;28;20290;-68
2023/12/26 15:56:48;;;;;;;2.30;2.20;;;;;;;;;;6312960;28;20593;-68
2023/12/26 15:59:52;;;;;;;3.97;2.20;;;;;;;;;;6312751;28;20297;-67
2023/12/26 16:02:56;;;;;;;1.93;1.93;;;;;;;;;;6312307;28;20306;-68
2023/12/26 16:06:02;;;;;;;2.40;2.30;;;;;;;;;;6312965;28;20292;-69
2023/12/26 16:09:07;;;;;;;2.47;2.37;;;;;;;;;;6312713;28;20295;-68
2023/12/26 16:12:11;;;;;;;2.13;2.10;;;;;;;;;;6312309;28;20290;-69
2023/12/26 16:15:15;;;;;;;2.60;2.40;;;;;;;;;;6312131;28;20291;-67
2023/12/26 16:18:19;;;;;;;2.07;2.07;;;;;;;;;;6310989;28;20322;-67
2023/12/26 16:21:25;;;;;;;2.00;2.00;;;;;;;;;;6312868;28;20299;-68
2023/12/26 16:24:29;;;;;;;2.10;2.00;;;;;;;;;;6310893;28;20618;-67
2023/12/26 16:27:35;;;;;;;2.40;2.20;;;;;;;;;;6312231;28;20322;-68
2023/12/26 16:30:39;;;;;;;2.10;2.10;;;;;;;;;;6311856;28;20293;-68
2023/12/26 16:33:44;;;;;;;2.33;2.13;;;;;;;;;;6312021;28;20293;-68
2023/12/26 16:36:50;;;;;;;2.00;1.90;;;;;;;;;;6312364;28;20293;-68
2023/12/26 16:39:53;;;;;;;2.23;2.23;;;;;;;;;;6299558;28;20477;-67
2023/12/26 16:42:58;;;;;;;3.67;2.40;;;;;;;;;;6286505;28;20297;-68
2023/12/26 16:46:07;;;;;;;2.50;2.40;;;;;;;;;;6288145;28;20289;-69
2023/12/26 16:49:11;;;;;;;2.43;2.30;;;;;;;;;;6286643;28;20303;-69
2023/12/26 16:52:17;;;;;;;2.50;2.40;;;;;;;;;;6306602;28;20293;-69
2023/12/26 16:55:21;;;;;;;2.23;2.13;;;;;;;;;;6311313;28;20292;-68
2023/12/26 16:58:25;;;;;;;2.43;2.33;;;;;;;;;;6311155;28;20297;-69
2023/12/26 17:01:29;;;;;;;2.30;2.20;;;;;;;;;;6311331;28;20301;-68
2023/12/26 17:04:33;;;;;;;2.40;2.30;;;;;;;;;;6311079;28;20298;-69
2023/12/26 17:07:42;;;;;;;2.27;2.17;;;;;;;;;;6311035;28;20297;-70
2023/12/26 17:10:46;;;;;;;2.60;2.50;;;;;;;;;;6311553;28;20293;-67
2023/12/26 17:13:50;;;;;;;2.87;2.67;;;;;;;;;;6291604;28;20597;-69
2023/12/26 17:16:54;;;;;;;2.53;2.43;;;;;;;;;;6286463;28;20300;-69
2023/12/26 17:19:58;;;;;;;2.47;2.37;;;;;;;;;;6285274;28;20298;-69
2023/12/26 17:23:03;;;;;;;2.63;2.50;;;;;;;;;;6284577;28;20290;-68
2023/12/26 17:26:07;;;;;;;2.77;2.60;;;;;;;;;;6285923;28;20250;-70
2023/12/26 17:29:12;;;;;;;4.67;2.90;;;;;;;;;;6285457;28;20306;-67
2023/12/26 17:32:16;;;;;;;3.03;2.83;;;;;;;;;;6285998;28;20247;-67
2023/12/26 17:35:20;;;;;;;2.90;2.80;;;;;;;;;;6285619;28;20313;-68
2023/12/26 17:38:25;;;;;;;3.23;3.03;;;;;;;;;;6285307;28;20292;-67
2023/12/26 17:41:29;;;;;;;3.17;2.97;;;;;;;;;;6285439;28;20294;-69
2023/12/26 17:44:33;;;;;;;3.03;2.80;;;;;;;;;;6285430;28;20297;-68
2023/12/26 17:47:39;;;;;;;3.30;2.40;;;;;;;;;;6283499;28;20305;-69
2023/12/26 17:50:43;;;;;;;3.17;2.87;;;;;;;;;;6285609;28;20293;-69
2023/12/26 17:53:49;;;;;;;2.90;2.73;;;;;;;;;;6284410;28;20321;-68
2023/12/26 17:56:53;;;;;;;4.33;2.67;;;;;;;;;;6301868;28;20466;-68
2023/12/26 17:59:57;;;;;;;2.90;2.80;;;;;;;;;;6309405;28;20569;-68
2023/12/26 18:03:01;;;;;;;3.10;2.90;;;;;;;;;;6309257;28;20312;-68
2023/12/26 18:06:09;;;;;;;3.40;3.10;;;;;;;;;;6310132;28;20291;-68
2023/12/26 18:09:14;;;;;;;2.50;2.40;;;;;;;;;;6308309;28;20297;-68
2023/12/26 18:12:20;;;;;;;3.43;2.57;;;;;;;;;;6310009;28;20497;-69
2023/12/26 18:15:24;;;;;;;2.93;2.73;;;;;;;;;;6309654;28;20469;-68
2023/12/26 18:18:28;;;;;;;2.70;2.50;;;;;;;;;;6309402;28;20292;-69
2023/12/26 18:21:34;;;;;;;2.83;2.70;;;;;;;;;;6310644;28;20300;-68
2023/12/26 18:24:39;;;;;;;3.20;2.90;;;;;;;;;;6309432;28;20524;-69
2023/12/26 18:27:43;;;;;;;4.50;2.60;;;;;;;;;;6309578;28;20309;-67
2023/12/26 18:30:47;;;;;;;2.90;2.70;;;;;;;;;;6308683;28;20544;-67
2023/12/26 18:33:51;;;;;;;2.87;2.67;;;;;;;;;;6309596;28;20587;-68
2023/12/26 18:36:55;;;;;;;3.07;2.73;;;;;;;;;;6309922;28;20295;-68
2023/12/26 18:40:01;;;;;;;2.57;2.47;;;;;;;;;;6309631;28;20295;-68
2023/12/26 18:43:05;;;;;;;3.07;2.77;;;;;;;;;;6315078;28;20326;-67
2023/12/26 18:46:11;;;;;;;2.63;2.50;;;;;;;;;;6315122;28;20296;-67
2023/12/26 18:49:16;;;;;;;2.80;2.70;;;;;;;;;;6315009;28;20367;-67
2023/12/26 18:52:20;;;;;;;3.20;2.83;;;;;;;;;;6309236;28;20289;-67
2023/12/26 18:55:25;;;;;;;3.00;2.80;;;;;;;;;;6309046;28;20290;-67
2023/12/26 18:58:30;;;;;;;2.90;2.70;;;;;;;;;;6308768;28;20292;-68
2023/12/26 19:01:41;;;;;;;3.23;2.97;;;;;;;;;;6309643;28;20293;-69
2023/12/26 19:04:46;;;;;;;2.70;2.60;;;;;;;;;;6309580;28;20309;-70
2023/12/26 19:07:51;;;;;;;3.23;2.60;;;;;;;;;;6313861;28;20310;-69
2023/12/26 19:10:56;;;;;;;2.40;2.30;;;;;;;;;;6314662;28;20449;-69
2023/12/26 19:14:00;;;;;;;2.60;2.43;;;;;;;;;;6311646;28;20312;-68
2023/12/26 19:17:04;;;;;;;3.10;2.90;;;;;;;;;;6314039;28;20247;-68
2023/12/26 19:20:10;;;;;;;2.90;2.80;;;;;;;;;;6313601;28;20299;-68
2023/12/26 19:23:14;;;;;;;2.90;2.33;;;;;;;;;;6313253;28;20317;-68
2023/12/26 19:26:20;;;;;;;2.60;2.50;;;;;;;;;;6313561;28;20246;-68
2023/12/26 19:29:24;;;;;;;2.60;2.40;;;;;;;;;;6313178;28;20285;-68
2023/12/26 19:32:28;;;;;;;2.60;2.40;;;;;;;;;;6313922;28;20293;-68
2023/12/26 19:35:32;;;;;;;2.43;2.33;;;;;;;;;;6313061;28;20293;-69
2023/12/26 19:38:36;;;;;;;2.37;2.27;;;;;;;;;;6313094;28;20410;-67
2023/12/26 19:41:42;;;;;;;4.60;2.50;;;;;;;;;;6313862;28;20288;-66
2023/12/26 19:44:46;;;;;;;2.57;2.47;;;;;;;;;;6313292;28;20320;-69
2023/12/26 19:47:51;;;;;;;2.40;2.30;;;;;;;;;;6312939;28;20308;-68
2023/12/26 19:50:55;;;;;;;2.50;2.40;;;;;;;;;;6313414;28;20353;-68
2023/12/26 19:53:59;;;;;;;2.47;2.33;;;;;;;;;;6312789;28;20323;-68
2023/12/26 19:57:05;;;;;;;2.13;2.03;;;;;;;;;;6313460;28;20296;-69
2023/12/26 20:00:12;;;;;;;2.83;2.70;;;;;;;;;;6312819;28;20291;-69
2023/12/26 20:03:17;;;;;;;2.60;2.40;;;;;;;;;;6312942;28;20295;-68
2023/12/26 20:06:30;;;;;;;2.37;2.27;;;;;;;;;;6313123;28;20297;-69
2023/12/26 20:09:34;;;;;;;2.50;2.40;;;;;;;;;;6312662;28;20301;-70
2023/12/26 20:12:40;;;;;;;2.80;2.70;;;;;;;;;;6312133;28;20587;-70
2023/12/26 20:15:44;;;;;;;4.00;2.80;;;;;;;;;;6312972;28;20298;-69
2023/12/26 20:18:51;;;;;;;4.70;2.63;;;;;;;;;;6312158;28;20473;-70
2023/12/26 20:21:56;;;;;;;2.70;2.60;;;;;;;;;;6312660;28;20285;-66
2023/12/26 20:25:00;;;;;;;2.90;2.80;;;;;;;;;;6312096;28;20304;-67
2023/12/26 20:28:07;;;;;;;2.70;2.50;;;;;;;;;;6311272;28;20293;-66
2023/12/26 20:31:12;;;;;;;2.90;2.80;;;;;;;;;;6312347;28;20298;-65
2023/12/26 20:34:16;;;;;;;3.33;3.13;;;;;;;;;;6311902;28;20297;-67
2023/12/26 20:37:21;;;;;;;3.07;2.77;;;;;;;;;;6312431;28;20288;-67
2023/12/26 20:40:25;;;;;;;2.80;2.70;;;;;;;;;;6311732;28;20320;-68
2023/12/26 20:43:30;;;;;;;2.70;2.60;;;;;;;;;;6311586;28;20292;-68
2023/12/26 20:46:34;;;;;;;3.10;2.90;;;;;;;;;;6312263;28;20308;-68
2023/12/26 20:49:38;;;;;;;3.37;2.60;;;;;;;;;;6311441;28;20287;-68
2023/12/26 20:52:42;;;;;;;3.13;2.93;;;;;;;;;;6311596;28;20301;-68
2023/12/26 20:55:46;;;;;;;3.10;2.80;;;;;;;;;;6311850;28;20289;-70
2023/12/26 20:58:52;;;;;;;3.07;2.97;;;;;;;;;;6310105;28;20600;-70
2023/12/26 21:01:56;;;;;;;2.77;2.67;;;;;;;;;;6311930;28;20301;-70
2023/12/26 21:05:00;;;;;;;3.10;2.90;;;;;;;;;;6310861;28;20608;-70
2023/12/26 21:08:05;;;;;;;2.70;2.50;;;;;;;;;;6311292;28;20293;-69
2023/12/26 21:11:09;;;;;;;2.87;2.67;;;;;;;;;;6310294;28;20537;-69
2023/12/26 21:14:17;;;;;;;2.80;2.60;;;;;;;;;;6310373;28;20312;-67
2023/12/26 21:17:21;;;;;;;2.77;2.63;;;;;;;;;;6311616;28;20284;-68
2023/12/26 21:20:25;;;;;;;2.67;2.43;;;;;;;;;;6311090;28;20293;-72
2023/12/26 21:23:29;;;;;;;4.47;2.77;;;;;;;;;;6292675;28;20283;-71
2023/12/26 21:26:34;;;;;;;2.60;2.50;;;;;;;;;;6310992;28;20467;-72